<?xml version="1.0" encoding="UTF-8" standalone="no" ?>
<gpx xmlns="http://www.topografix.com/GPX/1/1" xmlns:xsi="http://www.w3.org/2001/XMLSchema-instance" xsi:schemaLocation="http://www.topografix.com/GPX/1/1 http://www.topografix.com/GPX/1/1/gpx.xsd" version="1.1" creator="VisuGPX - https://www.visugpx.com">
  <metadata>
    <name>Le Longeron</name>
  </metadata>
  <trk>
    <name><![CDATA[15425387-le Longeron]]></name>
    <trkseg>
      <trkpt lat="47.0181" lon="-1.06701">
        <ele>107</ele>
        <time>2022-09-08T17:02:44Z</time>
      </trkpt>
      <trkpt lat="47.01811" lon="-1.06654">
        <ele>108</ele>
        <time>2022-09-08T17:03:27Z</time>
      </trkpt>
      <trkpt lat="47.01816" lon="-1.06574">
        <ele>108</ele>
        <time>2022-09-08T17:04:40Z</time>
      </trkpt>
      <trkpt lat="47.01823" lon="-1.06492">
        <ele>108</ele>
        <time>2022-09-08T17:05:55Z</time>
      </trkpt>
      <trkpt lat="47.01829" lon="-1.06428">
        <ele>109</ele>
        <time>2022-09-08T17:06:54Z</time>
      </trkpt>
      <trkpt lat="47.01832" lon="-1.06424">
        <ele>109</ele>
        <time>2022-09-08T17:06:59Z</time>
      </trkpt>
      <trkpt lat="47.0182" lon="-1.06399">
        <ele>109</ele>
        <time>2022-09-08T17:07:27Z</time>
      </trkpt>
      <trkpt lat="47.01777" lon="-1.06299">
        <ele>109</ele>
        <time>2022-09-08T17:09:15Z</time>
      </trkpt>
      <trkpt lat="47.0177" lon="-1.06291">
        <ele>109</ele>
        <time>2022-09-08T17:09:26Z</time>
      </trkpt>
      <trkpt lat="47.01764" lon="-1.06256">
        <ele>109</ele>
        <time>2022-09-08T17:09:59Z</time>
      </trkpt>
      <trkpt lat="47.01762" lon="-1.06257">
        <ele>109</ele>
        <time>2022-09-08T17:10:02Z</time>
      </trkpt>
      <trkpt lat="47.01764" lon="-1.06256">
        <ele>109</ele>
        <time>2022-09-08T17:10:05Z</time>
      </trkpt>
      <trkpt lat="47.01742" lon="-1.06165">
        <ele>110</ele>
        <time>2022-09-08T17:11:33Z</time>
      </trkpt>
      <trkpt lat="47.01741" lon="-1.06157">
        <ele>110</ele>
        <time>2022-09-08T17:11:40Z</time>
      </trkpt>
      <trkpt lat="47.01744" lon="-1.06142">
        <ele>111</ele>
        <time>2022-09-08T17:11:54Z</time>
      </trkpt>
      <trkpt lat="47.01744" lon="-1.06141">
        <ele>111</ele>
        <time>2022-09-08T17:11:55Z</time>
      </trkpt>
      <trkpt lat="47.01726" lon="-1.06111">
        <ele>112</ele>
        <time>2022-09-08T17:12:32Z</time>
      </trkpt>
      <trkpt lat="47.01695" lon="-1.0607">
        <ele>113</ele>
        <time>2022-09-08T17:13:27Z</time>
      </trkpt>
      <trkpt lat="47.01691" lon="-1.06065">
        <ele>113</ele>
        <time>2022-09-08T17:13:34Z</time>
      </trkpt>
      <trkpt lat="47.01684" lon="-1.06045">
        <ele>113</ele>
        <time>2022-09-08T17:13:55Z</time>
      </trkpt>
      <trkpt lat="47.01682" lon="-1.06036">
        <ele>114</ele>
        <time>2022-09-08T17:14:03Z</time>
      </trkpt>
      <trkpt lat="47.01682" lon="-1.06029">
        <ele>114</ele>
        <time>2022-09-08T17:14:10Z</time>
      </trkpt>
      <trkpt lat="47.01685" lon="-1.06005">
        <ele>114</ele>
        <time>2022-09-08T17:14:32Z</time>
      </trkpt>
      <trkpt lat="47.01685" lon="-1.05998">
        <ele>114</ele>
        <time>2022-09-08T17:14:38Z</time>
      </trkpt>
      <trkpt lat="47.01685" lon="-1.06005">
        <ele>114</ele>
        <time>2022-09-08T17:14:45Z</time>
      </trkpt>
      <trkpt lat="47.01678" lon="-1.06">
        <ele>114</ele>
        <time>2022-09-08T17:14:55Z</time>
      </trkpt>
      <trkpt lat="47.01673" lon="-1.05989">
        <ele>115</ele>
        <time>2022-09-08T17:15:07Z</time>
      </trkpt>
      <trkpt lat="47.0167" lon="-1.05951">
        <ele>116</ele>
        <time>2022-09-08T17:15:42Z</time>
      </trkpt>
      <trkpt lat="47.01665" lon="-1.059">
        <ele>118</ele>
        <time>2022-09-08T17:16:29Z</time>
      </trkpt>
      <trkpt lat="47.01655" lon="-1.05793">
        <ele>120</ele>
        <time>2022-09-08T17:18:07Z</time>
      </trkpt>
      <trkpt lat="47.01653" lon="-1.05744">
        <ele>120</ele>
        <time>2022-09-08T17:18:52Z</time>
      </trkpt>
      <trkpt lat="47.01654" lon="-1.0574">
        <ele>120</ele>
        <time>2022-09-08T17:18:56Z</time>
      </trkpt>
      <trkpt lat="47.01653" lon="-1.05735">
        <ele>120</ele>
        <time>2022-09-08T17:19:00Z</time>
      </trkpt>
      <trkpt lat="47.01649" lon="-1.05719">
        <ele>120</ele>
        <time>2022-09-08T17:19:16Z</time>
      </trkpt>
      <trkpt lat="47.01642" lon="-1.05706">
        <ele>119</ele>
        <time>2022-09-08T17:19:31Z</time>
      </trkpt>
      <trkpt lat="47.01624" lon="-1.05648">
        <ele>119</ele>
        <time>2022-09-08T17:20:29Z</time>
      </trkpt>
      <trkpt lat="47.01617" lon="-1.05621">
        <ele>119</ele>
        <time>2022-09-08T17:20:55Z</time>
      </trkpt>
      <trkpt lat="47.01609" lon="-1.05575">
        <ele>119</ele>
        <time>2022-09-08T17:21:38Z</time>
      </trkpt>
      <trkpt lat="47.01606" lon="-1.05521">
        <ele>118</ele>
        <time>2022-09-08T17:22:28Z</time>
      </trkpt>
      <trkpt lat="47.01607" lon="-1.05459">
        <ele>118</ele>
        <time>2022-09-08T17:23:24Z</time>
      </trkpt>
      <trkpt lat="47.01606" lon="-1.05452">
        <ele>118</ele>
        <time>2022-09-08T17:23:31Z</time>
      </trkpt>
      <trkpt lat="47.01607" lon="-1.05459">
        <ele>118</ele>
        <time>2022-09-08T17:23:37Z</time>
      </trkpt>
      <trkpt lat="47.01572" lon="-1.0545">
        <ele>117</ele>
        <time>2022-09-08T17:24:25Z</time>
      </trkpt>
      <trkpt lat="47.01569" lon="-1.05447">
        <ele>117</ele>
        <time>2022-09-08T17:24:29Z</time>
      </trkpt>
      <trkpt lat="47.01557" lon="-1.05434">
        <ele>116</ele>
        <time>2022-09-08T17:24:49Z</time>
      </trkpt>
      <trkpt lat="47.0151" lon="-1.05362">
        <ele>117</ele>
        <time>2022-09-08T17:26:20Z</time>
      </trkpt>
      <trkpt lat="47.01463" lon="-1.05273">
        <ele>119</ele>
        <time>2022-09-08T17:28:02Z</time>
      </trkpt>
      <trkpt lat="47.01394" lon="-1.05123">
        <ele>120</ele>
        <time>2022-09-08T17:30:47Z</time>
      </trkpt>
      <trkpt lat="47.01358" lon="-1.05064">
        <ele>120</ele>
        <time>2022-09-08T17:31:59Z</time>
      </trkpt>
      <trkpt lat="47.01338" lon="-1.05027">
        <ele>120</ele>
        <time>2022-09-08T17:32:42Z</time>
      </trkpt>
      <trkpt lat="47.01312" lon="-1.04957">
        <ele>119</ele>
        <time>2022-09-08T17:33:55Z</time>
      </trkpt>
      <trkpt lat="47.01244" lon="-1.04793">
        <ele>117</ele>
        <time>2022-09-08T17:36:49Z</time>
      </trkpt>
      <trkpt lat="47.01211" lon="-1.04711">
        <ele>113</ele>
        <time>2022-09-08T17:38:16Z</time>
      </trkpt>
      <trkpt lat="47.01211" lon="-1.04709">
        <ele>113</ele>
        <time>2022-09-08T17:38:18Z</time>
      </trkpt>
      <trkpt lat="47.01197" lon="-1.04714">
        <ele>113</ele>
        <time>2022-09-08T17:38:37Z</time>
      </trkpt>
      <trkpt lat="47.01103" lon="-1.04735">
        <ele>108</ele>
        <time>2022-09-08T17:40:44Z</time>
      </trkpt>
      <trkpt lat="47.01087" lon="-1.04736">
        <ele>107</ele>
        <time>2022-09-08T17:41:05Z</time>
      </trkpt>
      <trkpt lat="47.01055" lon="-1.04733">
        <ele>106</ele>
        <time>2022-09-08T17:41:48Z</time>
      </trkpt>
      <trkpt lat="47.0104" lon="-1.04734">
        <ele>106</ele>
        <time>2022-09-08T17:42:08Z</time>
      </trkpt>
      <trkpt lat="47.01038" lon="-1.04729">
        <ele>106</ele>
        <time>2022-09-08T17:42:13Z</time>
      </trkpt>
      <trkpt lat="47.0104" lon="-1.04734">
        <ele>106</ele>
        <time>2022-09-08T17:42:19Z</time>
      </trkpt>
      <trkpt lat="47.01031" lon="-1.04751">
        <ele>106</ele>
        <time>2022-09-08T17:42:38Z</time>
      </trkpt>
      <trkpt lat="47.01017" lon="-1.04765">
        <ele>106</ele>
        <time>2022-09-08T17:43:01Z</time>
      </trkpt>
      <trkpt lat="47.00997" lon="-1.04783">
        <ele>105</ele>
        <time>2022-09-08T17:43:32Z</time>
      </trkpt>
      <trkpt lat="47.00981" lon="-1.0479">
        <ele>104</ele>
        <time>2022-09-08T17:43:54Z</time>
      </trkpt>
      <trkpt lat="47.00977" lon="-1.04791">
        <ele>104</ele>
        <time>2022-09-08T17:44:00Z</time>
      </trkpt>
      <trkpt lat="47.00981" lon="-1.0479">
        <ele>104</ele>
        <time>2022-09-08T17:44:05Z</time>
      </trkpt>
      <trkpt lat="47.00979" lon="-1.04814">
        <ele>104</ele>
        <time>2022-09-08T17:44:27Z</time>
      </trkpt>
      <trkpt lat="47.00987" lon="-1.04872">
        <ele>105</ele>
        <time>2022-09-08T17:45:21Z</time>
      </trkpt>
      <trkpt lat="47.00987" lon="-1.04906">
        <ele>105</ele>
        <time>2022-09-08T17:45:52Z</time>
      </trkpt>
      <trkpt lat="47.00989" lon="-1.04923">
        <ele>105</ele>
        <time>2022-09-08T17:46:08Z</time>
      </trkpt>
      <trkpt lat="47.0099" lon="-1.04938">
        <ele>106</ele>
        <time>2022-09-08T17:46:21Z</time>
      </trkpt>
      <trkpt lat="47.01" lon="-1.04988">
        <ele>107</ele>
        <time>2022-09-08T17:47:09Z</time>
      </trkpt>
      <trkpt lat="47.01019" lon="-1.05068">
        <ele>108</ele>
        <time>2022-09-08T17:48:26Z</time>
      </trkpt>
      <trkpt lat="47.01028" lon="-1.05101">
        <ele>108</ele>
        <time>2022-09-08T17:48:58Z</time>
      </trkpt>
      <trkpt lat="47.0103" lon="-1.05134">
        <ele>108</ele>
        <time>2022-09-08T17:49:28Z</time>
      </trkpt>
      <trkpt lat="47.01033" lon="-1.05167">
        <ele>108</ele>
        <time>2022-09-08T17:49:59Z</time>
      </trkpt>
      <trkpt lat="47.01048" lon="-1.05226">
        <ele>108</ele>
        <time>2022-09-08T17:50:56Z</time>
      </trkpt>
      <trkpt lat="47.01048" lon="-1.05231">
        <ele>108</ele>
        <time>2022-09-08T17:51:01Z</time>
      </trkpt>
      <trkpt lat="47.01045" lon="-1.05238">
        <ele>108</ele>
        <time>2022-09-08T17:51:08Z</time>
      </trkpt>
      <trkpt lat="47.00956" lon="-1.05348">
        <ele>104</ele>
        <time>2022-09-08T17:53:43Z</time>
      </trkpt>
      <trkpt lat="47.00954" lon="-1.05354">
        <ele>103</ele>
        <time>2022-09-08T17:53:49Z</time>
      </trkpt>
      <trkpt lat="47.00981" lon="-1.0542">
        <ele>101</ele>
        <time>2022-09-08T17:54:59Z</time>
      </trkpt>
      <trkpt lat="47.00991" lon="-1.05438">
        <ele>101</ele>
        <time>2022-09-08T17:55:21Z</time>
      </trkpt>
      <trkpt lat="47.01013" lon="-1.05472">
        <ele>100</ele>
        <time>2022-09-08T17:56:03Z</time>
      </trkpt>
      <trkpt lat="47.0102" lon="-1.05474">
        <ele>101</ele>
        <time>2022-09-08T17:56:13Z</time>
      </trkpt>
      <trkpt lat="47.01026" lon="-1.0548">
        <ele>101</ele>
        <time>2022-09-08T17:56:22Z</time>
      </trkpt>
      <trkpt lat="47.01027" lon="-1.05485">
        <ele>101</ele>
        <time>2022-09-08T17:56:27Z</time>
      </trkpt>
      <trkpt lat="47.01026" lon="-1.055">
        <ele>100</ele>
        <time>2022-09-08T17:56:41Z</time>
      </trkpt>
      <trkpt lat="47.01016" lon="-1.0552">
        <ele>99</ele>
        <time>2022-09-08T17:57:03Z</time>
      </trkpt>
      <trkpt lat="47.01008" lon="-1.05554">
        <ele>97</ele>
        <time>2022-09-08T17:57:36Z</time>
      </trkpt>
      <trkpt lat="47.01008" lon="-1.05555">
        <ele>97</ele>
        <time>2022-09-08T17:57:37Z</time>
      </trkpt>
      <trkpt lat="47.00985" lon="-1.05642">
        <ele>89</ele>
        <time>2022-09-08T17:59:02Z</time>
      </trkpt>
      <trkpt lat="47.0093" lon="-1.0572">
        <ele>78</ele>
        <time>2022-09-08T18:00:44Z</time>
      </trkpt>
      <trkpt lat="47.00895" lon="-1.05762">
        <ele>68</ele>
        <time>2022-09-08T18:01:44Z</time>
      </trkpt>
      <trkpt lat="47.00915" lon="-1.05941">
        <ele>68</ele>
        <time>2022-09-08T18:04:30Z</time>
      </trkpt>
      <trkpt lat="47.0094" lon="-1.05985">
        <ele>69</ele>
        <time>2022-09-08T18:05:22Z</time>
      </trkpt>
      <trkpt lat="47.01007" lon="-1.06012">
        <ele>80</ele>
        <time>2022-09-08T18:06:54Z</time>
      </trkpt>
      <trkpt lat="47.01008" lon="-1.06097">
        <ele>72</ele>
        <time>2022-09-08T18:08:12Z</time>
      </trkpt>
      <trkpt lat="47.01067" lon="-1.06208">
        <ele>73</ele>
        <time>2022-09-08T18:10:20Z</time>
      </trkpt>
      <trkpt lat="47.0111" lon="-1.06283">
        <ele>73</ele>
        <time>2022-09-08T18:11:49Z</time>
      </trkpt>
      <trkpt lat="47.01172" lon="-1.0634">
        <ele>76</ele>
        <time>2022-09-08T18:13:27Z</time>
      </trkpt>
      <trkpt lat="47.01217" lon="-1.06362">
        <ele>80</ele>
        <time>2022-09-08T18:14:30Z</time>
      </trkpt>
      <trkpt lat="47.0124" lon="-1.06359">
        <ele>83</ele>
        <time>2022-09-08T18:15:01Z</time>
      </trkpt>
      <trkpt lat="47.01327" lon="-1.06506">
        <ele>76</ele>
        <time>2022-09-08T18:17:58Z</time>
      </trkpt>
      <trkpt lat="47.01335" lon="-1.06555">
        <ele>69</ele>
        <time>2022-09-08T18:18:44Z</time>
      </trkpt>
      <trkpt lat="47.01397" lon="-1.0656">
        <ele>78</ele>
        <time>2022-09-08T18:20:07Z</time>
      </trkpt>
      <trkpt lat="47.01369" lon="-1.06577">
        <ele>72</ele>
        <time>2022-09-08T18:20:47Z</time>
      </trkpt>
      <trkpt lat="47.01362" lon="-1.06626">
        <ele>68</ele>
        <time>2022-09-08T18:21:33Z</time>
      </trkpt>
      <trkpt lat="47.01352" lon="-1.0668">
        <ele>65</ele>
        <time>2022-09-08T18:22:23Z</time>
      </trkpt>
      <trkpt lat="47.01335" lon="-1.06724">
        <ele>63</ele>
        <time>2022-09-08T18:23:09Z</time>
      </trkpt>
      <trkpt lat="47.01307" lon="-1.06859">
        <ele>66</ele>
        <time>2022-09-08T18:25:18Z</time>
      </trkpt>
      <trkpt lat="47.01259" lon="-1.06984">
        <ele>66</ele>
        <time>2022-09-08T18:27:28Z</time>
      </trkpt>
      <trkpt lat="47.01239" lon="-1.07028">
        <ele>68</ele>
        <time>2022-09-08T18:28:16Z</time>
      </trkpt>
      <trkpt lat="47.01205" lon="-1.07062">
        <ele>65</ele>
        <time>2022-09-08T18:29:11Z</time>
      </trkpt>
      <trkpt lat="47.01092" lon="-1.07258">
        <ele>57</ele>
        <time>2022-09-08T18:33:05Z</time>
      </trkpt>
      <trkpt lat="47.01065" lon="-1.07143">
        <ele>52</ele>
        <time>2022-09-08T18:34:56Z</time>
      </trkpt>
      <trkpt lat="47.0097" lon="-1.07138">
        <ele>59</ele>
        <time>2022-09-08T18:37:02Z</time>
      </trkpt>
      <trkpt lat="47.00958" lon="-1.07074">
        <ele>63</ele>
        <time>2022-09-08T18:38:03Z</time>
      </trkpt>
      <trkpt lat="47.00916" lon="-1.0704">
        <ele>69</ele>
        <time>2022-09-08T18:39:07Z</time>
      </trkpt>
      <trkpt lat="47.00658" lon="-1.06988">
        <ele>90</ele>
        <time>2022-09-08T18:44:54Z</time>
      </trkpt>
      <trkpt lat="47.00679" lon="-1.0702">
        <ele>89</ele>
        <time>2022-09-08T18:45:35Z</time>
      </trkpt>
      <trkpt lat="47.00679" lon="-1.07157">
        <ele>88</ele>
        <time>2022-09-08T18:47:40Z</time>
      </trkpt>
      <trkpt lat="47.0071" lon="-1.07285">
        <ele>87</ele>
        <time>2022-09-08T18:49:43Z</time>
      </trkpt>
      <trkpt lat="47.00758" lon="-1.07414">
        <ele>88</ele>
        <time>2022-09-08T18:51:57Z</time>
      </trkpt>
      <trkpt lat="47.00828" lon="-1.07605">
        <ele>84</ele>
        <time>2022-09-08T18:55:14Z</time>
      </trkpt>
      <trkpt lat="47.00878" lon="-1.07637">
        <ele>75</ele>
        <time>2022-09-08T18:56:27Z</time>
      </trkpt>
      <trkpt lat="47.00903" lon="-1.07718">
        <ele>80</ele>
        <time>2022-09-08T18:57:48Z</time>
      </trkpt>
      <trkpt lat="47.00933" lon="-1.07745">
        <ele>79</ele>
        <time>2022-09-08T18:58:35Z</time>
      </trkpt>
      <trkpt lat="47.00988" lon="-1.0795">
        <ele>70</ele>
        <time>2022-09-08T19:01:55Z</time>
      </trkpt>
      <trkpt lat="47.0102" lon="-1.08026">
        <ele>60</ele>
        <time>2022-09-08T19:03:17Z</time>
      </trkpt>
      <trkpt lat="47.01022" lon="-1.08065">
        <ele>57</ele>
        <time>2022-09-08T19:03:52Z</time>
      </trkpt>
      <trkpt lat="47.0101" lon="-1.08136">
        <ele>58</ele>
        <time>2022-09-08T19:04:59Z</time>
      </trkpt>
      <trkpt lat="47.01042" lon="-1.08212">
        <ele>59</ele>
        <time>2022-09-08T19:06:20Z</time>
      </trkpt>
      <trkpt lat="47.01077" lon="-1.08403">
        <ele>69</ele>
        <time>2022-09-08T19:09:20Z</time>
      </trkpt>
      <trkpt lat="47.01078" lon="-1.08425">
        <ele>70</ele>
        <time>2022-09-08T19:09:40Z</time>
      </trkpt>
      <trkpt lat="47.01106" lon="-1.08382">
        <ele>65</ele>
        <time>2022-09-08T19:10:34Z</time>
      </trkpt>
      <trkpt lat="47.01135" lon="-1.08359">
        <ele>61</ele>
        <time>2022-09-08T19:11:18Z</time>
      </trkpt>
      <trkpt lat="47.0115" lon="-1.08339">
        <ele>59</ele>
        <time>2022-09-08T19:11:45Z</time>
      </trkpt>
      <trkpt lat="47.01189" lon="-1.08303">
        <ele>56</ele>
        <time>2022-09-08T19:12:47Z</time>
      </trkpt>
      <trkpt lat="47.01217" lon="-1.08298">
        <ele>54</ele>
        <time>2022-09-08T19:13:24Z</time>
      </trkpt>
      <trkpt lat="47.01241" lon="-1.08312">
        <ele>53</ele>
        <time>2022-09-08T19:13:59Z</time>
      </trkpt>
      <trkpt lat="47.01241" lon="-1.08331">
        <ele>54</ele>
        <time>2022-09-08T19:14:16Z</time>
      </trkpt>
      <trkpt lat="47.01258" lon="-1.08373">
        <ele>56</ele>
        <time>2022-09-08T19:15:00Z</time>
      </trkpt>
      <trkpt lat="47.01302" lon="-1.0834">
        <ele>61</ele>
        <time>2022-09-08T19:16:06Z</time>
      </trkpt>
      <trkpt lat="47.01331" lon="-1.08305">
        <ele>62</ele>
        <time>2022-09-08T19:16:57Z</time>
      </trkpt>
      <trkpt lat="47.0135" lon="-1.08276">
        <ele>62</ele>
        <time>2022-09-08T19:17:33Z</time>
      </trkpt>
      <trkpt lat="47.01362" lon="-1.08228">
        <ele>61</ele>
        <time>2022-09-08T19:18:20Z</time>
      </trkpt>
      <trkpt lat="47.01363" lon="-1.08169">
        <ele>62</ele>
        <time>2022-09-08T19:19:13Z</time>
      </trkpt>
      <trkpt lat="47.0135" lon="-1.08115">
        <ele>62</ele>
        <time>2022-09-08T19:20:05Z</time>
      </trkpt>
      <trkpt lat="47.01314" lon="-1.08058">
        <ele>62</ele>
        <time>2022-09-08T19:21:16Z</time>
      </trkpt>
      <trkpt lat="47.01229" lon="-1.07932">
        <ele>61</ele>
        <time>2022-09-08T19:23:57Z</time>
      </trkpt>
      <trkpt lat="47.01217" lon="-1.07888">
        <ele>63</ele>
        <time>2022-09-08T19:24:41Z</time>
      </trkpt>
      <trkpt lat="47.0117" lon="-1.07849">
        <ele>58</ele>
        <time>2022-09-08T19:25:53Z</time>
      </trkpt>
      <trkpt lat="47.0116" lon="-1.07804">
        <ele>60</ele>
        <time>2022-09-08T19:26:36Z</time>
      </trkpt>
      <trkpt lat="47.01153" lon="-1.07753">
        <ele>61</ele>
        <time>2022-09-08T19:27:23Z</time>
      </trkpt>
      <trkpt lat="47.01171" lon="-1.07711">
        <ele>65</ele>
        <time>2022-09-08T19:28:08Z</time>
      </trkpt>
      <trkpt lat="47.01172" lon="-1.07687">
        <ele>66</ele>
        <time>2022-09-08T19:28:30Z</time>
      </trkpt>
      <trkpt lat="47.01148" lon="-1.07675">
        <ele>63</ele>
        <time>2022-09-08T19:29:04Z</time>
      </trkpt>
      <trkpt lat="47.01139" lon="-1.07614">
        <ele>65</ele>
        <time>2022-09-08T19:30:01Z</time>
      </trkpt>
      <trkpt lat="47.01139" lon="-1.07557">
        <ele>66</ele>
        <time>2022-09-08T19:30:53Z</time>
      </trkpt>
      <trkpt lat="47.0115" lon="-1.07495">
        <ele>69</ele>
        <time>2022-09-08T19:31:51Z</time>
      </trkpt>
      <trkpt lat="47.01124" lon="-1.0745">
        <ele>64</ele>
        <time>2022-09-08T19:32:44Z</time>
      </trkpt>
      <trkpt lat="47.01093" lon="-1.07283">
        <ele>58</ele>
        <time>2022-09-08T19:35:22Z</time>
      </trkpt>
      <trkpt lat="47.01127" lon="-1.07211">
        <ele>61</ele>
        <time>2022-09-08T19:36:42Z</time>
      </trkpt>
      <trkpt lat="47.0118" lon="-1.07114">
        <ele>63</ele>
        <time>2022-09-08T19:38:35Z</time>
      </trkpt>
      <trkpt lat="47.01207" lon="-1.07074">
        <ele>67</ele>
        <time>2022-09-08T19:39:26Z</time>
      </trkpt>
      <trkpt lat="47.01236" lon="-1.07041">
        <ele>70</ele>
        <time>2022-09-08T19:40:15Z</time>
      </trkpt>
      <trkpt lat="47.01267" lon="-1.06991">
        <ele>69</ele>
        <time>2022-09-08T19:41:16Z</time>
      </trkpt>
      <trkpt lat="47.01317" lon="-1.06871">
        <ele>69</ele>
        <time>2022-09-08T19:43:24Z</time>
      </trkpt>
      <trkpt lat="47.01344" lon="-1.06729">
        <ele>65</ele>
        <time>2022-09-08T19:45:39Z</time>
      </trkpt>
      <trkpt lat="47.01362" lon="-1.06687">
        <ele>68</ele>
        <time>2022-09-08T19:46:24Z</time>
      </trkpt>
      <trkpt lat="47.01372" lon="-1.06631">
        <ele>70</ele>
        <time>2022-09-08T19:47:16Z</time>
      </trkpt>
      <trkpt lat="47.01377" lon="-1.06589">
        <ele>72</ele>
        <time>2022-09-08T19:47:55Z</time>
      </trkpt>
      <trkpt lat="47.01395" lon="-1.06576">
        <ele>76</ele>
        <time>2022-09-08T19:48:22Z</time>
      </trkpt>
      <trkpt lat="47.01432" lon="-1.06559">
        <ele>83</ele>
        <time>2022-09-08T19:49:14Z</time>
      </trkpt>
      <trkpt lat="47.01467" lon="-1.06517">
        <ele>87</ele>
        <time>2022-09-08T19:50:14Z</time>
      </trkpt>
      <trkpt lat="47.01507" lon="-1.06477">
        <ele>92</ele>
        <time>2022-09-08T19:51:19Z</time>
      </trkpt>
      <trkpt lat="47.01548" lon="-1.06443">
        <ele>97</ele>
        <time>2022-09-08T19:52:21Z</time>
      </trkpt>
      <trkpt lat="47.01573" lon="-1.06416">
        <ele>99</ele>
        <time>2022-09-08T19:53:03Z</time>
      </trkpt>
      <trkpt lat="47.01638" lon="-1.0637">
        <ele>104</ele>
        <time>2022-09-08T19:54:39Z</time>
      </trkpt>
      <trkpt lat="47.01681" lon="-1.06353">
        <ele>106</ele>
        <time>2022-09-08T19:55:39Z</time>
      </trkpt>
      <trkpt lat="47.01702" lon="-1.06328">
        <ele>107</ele>
        <time>2022-09-08T19:56:15Z</time>
      </trkpt>
      <trkpt lat="47.01713" lon="-1.06289">
        <ele>108</ele>
        <time>2022-09-08T19:56:53Z</time>
      </trkpt>
      <trkpt lat="47.01755" lon="-1.06263">
        <ele>109</ele>
        <time>2022-09-08T19:57:54Z</time>
      </trkpt>
      <trkpt lat="47.01769" lon="-1.06295">
        <ele>109</ele>
        <time>2022-09-08T19:58:29Z</time>
      </trkpt>
      <trkpt lat="47.01692" lon="-1.06565">
        <ele>108</ele>
        <time>2022-09-08T20:02:55Z</time>
      </trkpt>
      <trkpt lat="47.01661" lon="-1.06672">
        <ele>106</ele>
        <time>2022-09-08T20:04:41Z</time>
      </trkpt>
      <trkpt lat="47.01773" lon="-1.06721">
        <ele>107</ele>
        <time>2022-09-08T20:07:17Z</time>
      </trkpt>
      <trkpt lat="47.01808" lon="-1.06715">
        <ele>107</ele>
        <time>2022-09-08T20:08:04Z</time>
      </trkpt>
      <trkpt lat="47.01809" lon="-1.067">
        <ele>107</ele>
        <time>2022-09-08T20:08:17Z</time>
      </trkpt>
    </trkseg>
  </trk>
</gpx>